Marion Center, PA

7:13 AM EST on January 28, 2015 (GMT -0500)
Clearfield-Lawrence | Change Station
CLOSE
Current Station
Airport
Location: Clearfield,
Elevation: 1516 ft
Nearby Weather Stations

Elev 1516 ft 41.05 °N, 78.41 °W | Updated 19 minutes ago

Overcast
Overcast
9 °F
Feels Like 1 °F
N
5
Wind Variable Wind from SW

Today
High -- | Low -- °F
--% Chance of Precip.
Yesterday
High -- | Low -- °F
Precip. -- in
7:30 AM 5:28 PM
Waxing Gibbous, 64% visible
Pressure 30.25 in
Visibility 6.0 miles
Clouds Overcast 1100 ft
Windchill 1 °F
Dew Point 5 °F
Humidity 84%
Rainfall 0.00 in
Snow Depth Not available.
UV 0 out of 12
Pollen .10 out of 12
Air Quality Not available.
Flu Activity Not available.
METAR KFIG 281154Z AUTO 23004KT 6SM BR OVC011 M13/M15 A3017 RMK AO2 SNB1058E38 SLP244 P0000 60000 70002 I6000 T11281150 11128 21144 53030

More Conditions Fewer Conditions

Pressure 30.25 in
Visibility 6.0 miles
Clouds Overcast 1100 ft
Windchill 1 °F
Dew Point 5 °F
Humidity 84%
Rainfall 0.00 in
Snow Depth Not available.
UV 0 out of 12
Pollen .10 out of 12
Air Quality Not available.
Flu Activity Not available.
METAR KFIG 281154Z AUTO 23004KT 6SM BR OVC011 M13/M15 A3017 RMK AO2 SNB1058E38 SLP244 P0000 60000 70002 I6000 T11281150 11128 21144 53030

More Conditions Fewer Conditions

10-Day Weather Forecast

Almanac

Astronomy

Jan. 28, 2015 Rise Set
Actual Time
Civil Twilight
Nautical Twilight
Astronomical Twilight
Moon
Length of Visible Light
Length of Day
Tomorrow will be .
, % of the Moon is Illuminated

Today's Extremes

State Highs State Lows

Community

WunderPhotos

Upload Photos

1,791,131 photos uploaded!

WunderBlogs® & News

Nearby

Air Quality

  Air Quality AQ Index Pollutant
Not available.

Snow Depth

Station Depth Elevation

Earthquake Activity

City Distance Mag. Time & Date
Minimum magnitude displayed is 2.5.

Coastal Water Temperatures

Place Temperature

Nearby Weather Stations